ADDS TAF Board (Experimental) INFO Settings
IDs: Format: Expanded Condensed

KCVG - Cincinnati Intl, KY, US

Issued at 0521 UTC 02 Jul 2016
Updated at 0534 UTC 02 Jul 2016
Time0452Z 02/06Z 02/07Z 02/08Z 02/09Z 02/10Z 02/11Z 02/12Z 02/13Z 02/14Z 02/15Z 02/16Z 02/17Z 02/18Z
Type OBS PRVL PRVL PRVL PRVL PRVL PRVL PRVL PRVL PRVL PRVL PRVL PRVL PRVL
VIS 10 >6 >6 >6 >6 >6 >6 >6 >6 >6 >6 >6 >6 >6
CIG -- -- -- -- -- -- -- -- -- -- 150 150 150 150
Cover CLR FEW FEW FEW FEW FEW FEW FEW FEW FEW BKN BKN BKN BKN
FltCat VFR VFR VFR VFR VFR VFR VFR VFR VFR VFR VFR VFR VFR VFR
WX -- -- -- -- -- -- -- -- -- -- -- -- -- --
WDir 340 10 10 10 10 10 10 10 10 10 30 30 30 30
WSpd 7 7 7 7 7 7 7 7 7 7 5 5 5 5
WGst -- -- -- -- -- -- -- -- -- -- -- -- -- --
R09/27
XWnd 7 7 7 7 7 7 7 7 7 7 4 4 4 4
HWnd -2 1 1 1 1 1 1 1 1 1 3 3 3 3
R18/36
XWnd -2 1 1 1 1 1 1 1 1 1 3 3 3 3
HWnd -7 -7 -7 -7 -7 -7 -7 -7 -7 -7 -4 -4 -4 -4

Raw TAF
KCVG 020521Z 0206/0312 01007KT P6SM FEW250
  FM021500 03005KT P6SM BKN150
  FM030300 04005KT P6SM OVC080
  FM031000 08005KT P6SM VCSH OVC050


Raw METAR
KCVG 020452Z 34007KT 10SM CLR 19/12 A3011 RMK AO2 SLP186 T01890122 402890161
KCVG 020252Z 35009KT 10SM FEW250 21/13 A3008 RMK AO2 SLP177 T02060133 53018

METAR Board
Radar Display
Forecast Discussion

TAF Board Legend

Potential Impact
Threat None Slight Moderate High
Visibility (sm) ≥5.1 5.1>X≥3 3>X≥1 <1
Ceiling (100 ft) ≥30.1 30.1>X≥10 10>X≥5 <5
Wind Speed (kt) <10 10≤X<20 20≤X<30 ≥30
Wind Gust (kt) <15 15≤X<25 25≤X<35 ≥35
Weather No Wx Reported VCTS,-TS,-FZRA,SN TS,FZRA +TS,+FZRA,+SN